Time;durP1;ratioP1;P1;durP2;ratioP2;P2;SDS_P1;SDS_P2;PMS_P1;PMS_P2;Temp;Humidity;BMP_temperature;BMP_pressure;BME280_temperature;BME280_humidity;BME280_pressure;Samples;Min_cycle;Max_cycle;Signal;HPM_P1;HPM_P2
2023/02/23 00:00:07;;;;;;;71.53;31.05;;;;;;;-143.48;100.00;118439.88;5094141;28;20024;-74
2023/02/23 00:02:32;;;;;;;79.43;32.72;;;;;;;-143.48;100.00;118439.88;5075624;28;20024;-74
2023/02/23 00:04:58;;;;;;;77.38;31.88;;;;;;;-143.48;100.00;118439.88;5093606;28;20020;-74
2023/02/23 00:07:23;;;;;;;77.30;32.88;;;;;;;-143.48;100.00;118439.88;5075940;28;20020;-75
2023/02/23 00:09:49;;;;;;;72.15;32.08;;;;;;;-143.48;100.00;118439.88;5094102;28;20107;-74
2023/02/23 00:12:16;;;;;;;76.32;33.03;;;;;;;-143.48;100.00;118439.88;5093808;28;20042;-74
2023/02/23 00:14:42;;;;;;;76.32;32.10;;;;;;;-143.48;100.00;118439.88;5075364;28;20138;-74
2023/02/23 00:17:12;;;;;;;75.43;31.83;;;;;;;-143.48;100.00;118439.88;5093255;28;20023;-74
2023/02/23 00:19:38;;;;;;;73.47;32.28;;;;;;;-143.48;100.00;118439.88;5075288;28;20059;-74
2023/02/23 00:22:03;;;;;;;79.72;32.70;;;;;;;-143.48;100.00;118439.88;5071695;28;20071;-74
2023/02/23 00:24:29;;;;;;;78.63;33.13;;;;;;;-143.48;100.00;118439.88;5073367;28;20035;-74
2023/02/23 00:26:54;;;;;;;83.90;33.78;;;;;;;-143.48;100.00;118439.88;5072056;28;20591;-74
2023/02/23 00:29:23;;;;;;;77.88;32.92;;;;;;;-143.48;100.00;118439.88;5073619;28;20032;-73
2023/02/23 00:31:50;;;;;;;76.82;32.15;;;;;;;-143.48;100.00;118439.88;5073174;28;20028;-74
2023/02/23 00:34:22;;;;;;;78.30;33.05;;;;;;;-143.48;100.00;118439.88;5071797;28;20031;-74
2023/02/23 00:36:55;;;;;;;72.60;32.38;;;;;;;-143.48;100.00;118439.88;5073072;28;20551;-75
2023/02/23 00:39:25;;;;;;;76.15;32.58;;;;;;;-143.48;100.00;118439.88;5072237;28;20032;-72
2023/02/23 00:41:51;;;;;;;80.38;32.83;;;;;;;-143.48;100.00;118439.88;5071861;28;20025;-74
2023/02/23 00:44:17;;;;;;;73.75;31.45;;;;;;;-143.48;100.00;118439.88;5072131;28;20020;-73
2023/02/23 00:46:44;;;;;;;75.43;33.40;;;;;;;-143.48;100.00;118439.88;5071669;28;20023;-74
2023/02/23 00:49:12;;;;;;;70.13;30.05;;;;;;;-143.48;100.00;118439.88;5072187;28;20082;-74
2023/02/23 00:51:38;;;;;;;72.25;32.22;;;;;;;-143.48;100.00;118439.88;5071666;28;20027;-74
2023/02/23 00:54:04;;;;;;;73.47;32.67;;;;;;;-143.48;100.00;118439.88;5072963;28;20102;-74
2023/02/23 00:56:29;;;;;;;76.60;31.92;;;;;;;-143.48;100.00;118439.88;5073965;28;20020;-74
2023/02/23 00:58:55;;;;;;;81.00;32.75;;;;;;;-143.48;100.00;118439.88;5075550;28;20566;-74
2023/02/23 01:01:22;;;;;;;79.40;33.72;;;;;;;-143.48;100.00;118439.88;5077326;28;20375;-74
2023/02/23 01:03:48;;;;;;;78.32;33.75;;;;;;;-143.48;100.00;118439.88;5076454;28;20207;-74
2023/02/23 01:06:15;;;;;;;76.72;32.65;;;;;;;-143.48;100.00;118439.88;5076523;28;20507;-74
2023/02/23 01:08:44;;;;;;;77.43;31.67;;;;;;;-143.48;100.00;118439.88;5076916;28;20037;-74
2023/02/23 01:11:12;;;;;;;80.00;33.35;;;;;;;-143.48;100.00;118439.88;5075240;28;20074;-74
2023/02/23 01:13:38;;;;;;;72.53;33.00;;;;;;;-143.48;100.00;118439.88;5076491;28;20031;-74
2023/02/23 01:16:16;;;;;;;72.53;32.35;;;;;;;-143.48;100.00;118439.88;5075499;28;20130;-74
2023/02/23 01:18:43;;;;;;;73.47;32.28;;;;;;;-143.48;100.00;118439.88;5075136;28;20021;-74
2023/02/23 01:21:27;;;;;;;77.45;33.53;;;;;;;-143.48;100.00;118439.88;5077996;28;20027;-74
2023/02/23 01:23:53;;;;;;;77.22;32.72;;;;;;;-143.48;100.00;118439.88;5078962;28;20379;-73
2023/02/23 01:26:19;;;;;;;70.30;30.33;;;;;;;-143.48;100.00;118439.88;5078046;28;20047;-73
2023/02/23 01:28:54;;;;;;;73.53;31.00;;;;;;;-143.48;100.00;118439.88;5078239;28;20093;-73
2023/02/23 01:31:20;;;;;;;77.00;32.08;;;;;;;-143.48;100.00;118439.88;5078337;28;20363;-73
2023/02/23 01:33:46;;;;;;;78.38;31.92;;;;;;;-143.48;100.00;118439.88;5078468;28;20504;-73
2023/02/23 01:36:12;;;;;;;73.68;32.17;;;;;;;-143.48;100.00;118439.88;5096945;28;20016;-74
2023/02/23 01:38:38;;;;;;;77.47;31.50;;;;;;;-143.48;100.00;118439.88;5078726;28;20032;-74
2023/02/23 01:41:05;;;;;;;72.95;31.17;;;;;;;-143.48;100.00;118439.88;5096233;28;20024;-74
2023/02/23 01:43:31;;;;;;;77.43;32.50;;;;;;;-143.48;100.00;118439.88;5096239;28;20021;-74
2023/02/23 01:45:59;;;;;;;69.32;30.63;;;;;;;-143.48;100.00;118439.88;5077741;28;20178;-74
2023/02/23 01:48:25;;;;;;;75.00;32.63;;;;;;;-143.48;100.00;118439.88;5096029;28;20032;-74
2023/02/23 01:51:06;;;;;;;74.30;31.73;;;;;;;-143.48;100.00;118439.88;5077875;28;20031;-74
2023/02/23 01:53:34;;;;;;;74.18;31.05;;;;;;;-143.48;100.00;118439.88;5077897;28;20410;-74
2023/02/23 01:56:10;;;;;;;73.55;32.05;;;;;;;-143.48;100.00;118439.88;5078547;28;20020;-74
2023/02/23 01:58:38;;;;;;;74.82;32.42;;;;;;;-143.48;100.00;118439.88;5077634;28;20028;-72
2023/02/23 02:01:03;;;;;;;75.30;31.23;;;;;;;-143.48;100.00;118439.88;5095852;28;20056;-72
2023/02/23 02:03:40;;;;;;;75.57;31.38;;;;;;;-143.48;100.00;118439.88;5078199;28;20447;-74
2023/02/23 02:06:08;;;;;;;75.88;31.48;;;;;;;-143.48;100.00;118439.88;5077251;28;20066;-74
2023/02/23 02:08:43;;;;;;;72.20;30.98;;;;;;;-143.48;100.00;118439.88;5076629;28;20028;-74
2023/02/23 02:11:29;;;;;;;79.53;31.42;;;;;;;-143.48;100.00;118439.88;5095650;28;20028;-74
2023/02/23 02:14:01;;;;;;;71.40;31.75;;;;;;;-143.48;100.00;118439.88;5096082;28;20363;-74
2023/02/23 02:16:51;;;;;;;73.28;31.02;;;;;;;-143.48;100.00;118439.88;5077599;28;20425;-74
2023/02/23 02:19:48;;;;;;;74.38;31.45;;;;;;;-143.48;100.00;118439.88;5077870;28;20023;-74
2023/02/23 02:22:24;;;;;;;73.55;30.92;;;;;;;-143.48;100.00;118439.88;5077136;28;20054;-73
2023/02/23 02:25:05;;;;;;;70.40;30.42;;;;;;;-143.48;100.00;118439.88;5099754;28;20074;-73
2023/02/23 02:28:07;;;;;;;69.20;30.15;;;;;;;-143.48;100.00;118439.88;5095783;28;20036;-73
2023/02/23 02:30:51;;;;;;;73.65;30.80;;;;;;;-143.48;100.00;118439.88;5034457;28;20036;-73
2023/02/23 02:33:47;;;;;;;73.25;31.65;;;;;;;-143.48;100.00;118439.88;5095584;28;20146;-73
2023/02/23 02:36:18;;;;;;;73.22;31.45;;;;;;;-143.48;100.00;118439.88;5095537;28;20104;-74
2023/02/23 02:39:06;;;;;;;74.30;31.42;;;;;;;-143.48;100.00;118439.88;5096066;28;20119;-74
2023/02/23 02:41:55;;;;;;;74.78;31.50;;;;;;;-143.48;100.00;118439.88;5077354;28;20024;-74
2023/02/23 02:44:41;;;;;;;71.75;30.63;;;;;;;-143.48;100.00;118439.88;5077264;28;20498;-74
2023/02/23 02:47:15;;;;;;;76.32;30.58;;;;;;;-143.48;100.00;118439.88;5077882;28;20530;-74
2023/02/23 02:49:58;;;;;;;79.40;31.48;;;;;;;-143.48;100.00;118439.88;5095563;28;20089;-74
2023/02/23 02:52:30;;;;;;;67.25;30.50;;;;;;;-143.48;100.00;118439.88;5095498;28;20348;-74
2023/02/23 02:55:02;;;;;;;73.72;31.38;;;;;;;-143.48;100.00;118439.88;5095966;28;20027;-74
2023/02/23 02:57:28;;;;;;;71.50;30.45;;;;;;;-143.48;100.00;118439.88;5076983;28;20020;-75
2023/02/23 04:19:52;;;;;;;74.32;30.88;;;;;;;-143.48;100.00;118439.88;5094599;28;20024;-73
2023/02/23 04:22:18;;;;;;;76.35;31.48;;;;;;;-143.48;100.00;118439.88;5093738;28;20078;-73
2023/02/23 04:24:45;;;;;;;75.43;30.67;;;;;;;-143.48;100.00;118439.88;5093559;28;20471;-73
2023/02/23 04:27:10;;;;;;;72.90;30.90;;;;;;;-143.48;100.00;118439.88;5075435;28;20119;-73
2023/02/23 04:29:36;;;;;;;75.15;30.00;;;;;;;-143.48;100.00;118439.88;5093537;28;20106;-73
2023/02/23 04:32:01;;;;;;;73.65;30.30;;;;;;;-143.48;100.00;118439.88;5078696;28;20077;-74
2023/02/23 04:34:27;;;;;;;76.28;31.52;;;;;;;-143.48;100.00;118439.88;5079236;28;20031;-73
2023/02/23 04:36:52;;;;;;;76.65;31.50;;;;;;;-143.48;100.00;118439.88;5080222;28;20020;-73
2023/02/23 04:39:17;;;;;;;76.40;29.98;;;;;;;-143.48;100.00;118439.88;5079171;28;20103;-73
2023/02/23 04:41:43;;;;;;;74.90;31.40;;;;;;;-143.48;100.00;118439.88;5097790;28;20020;-73
2023/02/23 04:44:08;;;;;;;77.05;31.20;;;;;;;-143.48;100.00;118439.88;5097294;28;20077;-74
2023/02/23 04:46:33;;;;;;;73.10;30.33;;;;;;;-143.48;100.00;118439.88;5079297;28;20270;-73
2023/02/23 04:48:58;;;;;;;72.82;30.15;;;;;;;-143.48;100.00;118439.88;5079159;28;20020;-73
2023/02/23 04:51:29;;;;;;;70.03;30.63;;;;;;;-143.48;100.00;118439.88;5097133;28;20487;-73
2023/02/23 04:53:54;;;;;;;75.15;30.73;;;;;;;-143.48;100.00;118439.88;5097292;28;20047;-73
2023/02/23 04:56:20;;;;;;;73.10;29.95;;;;;;;-143.48;100.00;118439.88;5078983;28;20038;-73
2023/02/23 04:58:45;;;;;;;72.20;30.38;;;;;;;-143.48;100.00;118439.88;5097558;28;20099;-73
2023/02/23 05:01:10;;;;;;;79.57;30.65;;;;;;;-143.48;100.00;118439.88;5079642;28;20024;-73
2023/02/23 05:03:35;;;;;;;73.57;31.08;;;;;;;-143.48;100.00;118439.88;5078985;28;20056;-73
2023/02/23 05:06:01;;;;;;;75.70;31.42;;;;;;;-143.48;100.00;118439.88;5097521;28;20106;-74
2023/02/23 05:08:27;;;;;;;69.97;30.30;;;;;;;-143.48;100.00;118439.88;5097098;28;20471;-75
2023/02/23 05:10:52;;;;;;;72.47;29.85;;;;;;;-143.48;100.00;118439.88;5078572;28;20497;-72
2023/02/23 05:13:17;;;;;;;75.20;31.40;;;;;;;-143.48;100.00;118439.88;5096657;28;20080;-73
2023/02/23 05:15:43;;;;;;;75.78;30.85;;;;;;;-143.48;100.00;118439.88;5096809;28;20028;-74
2023/02/23 05:18:09;;;;;;;66.70;28.98;;;;;;;-143.48;100.00;118439.88;5079513;28;20028;-74
2023/02/23 05:20:34;;;;;;;78.53;30.42;;;;;;;-143.48;100.00;118439.88;5078388;28;20540;-74
2023/02/23 05:23:00;;;;;;;73.03;30.30;;;;;;;-143.48;100.00;118439.88;5078097;28;20043;-74
2023/02/23 05:25:25;;;;;;;72.25;29.70;;;;;;;-143.48;100.00;118439.88;5096872;28;20024;-74
2023/02/23 05:27:50;;;;;;;67.20;29.00;;;;;;;-143.48;100.00;118439.88;5096385;28;20024;-74
2023/02/23 05:30:16;;;;;;;73.80;29.35;;;;;;;-143.48;100.00;118439.88;5078171;28;20016;-74
2023/02/23 05:32:41;;;;;;;73.28;29.73;;;;;;;-143.48;100.00;118439.88;5096355;28;20031;-74
2023/02/23 05:35:07;;;;;;;75.75;29.48;;;;;;;-143.48;100.00;118439.88;5096425;28;20386;-72
2023/02/23 05:37:33;;;;;;;72.88;29.27;;;;;;;-143.48;100.00;118439.88;5078355;28;20020;-72
2023/02/23 05:39:59;;;;;;;67.00;29.08;;;;;;;-143.48;100.00;118439.88;5096818;28;20028;-73
2023/02/23 05:42:24;;;;;;;69.38;29.80;;;;;;;-143.48;100.00;118439.88;5095294;28;20024;-73
2023/02/23 05:44:50;;;;;;;69.30;28.52;;;;;;;-143.48;100.00;118439.88;5078147;28;20024;-73
2023/02/23 05:47:15;;;;;;;72.53;29.58;;;;;;;-143.48;100.00;118439.88;5077834;28;20081;-74
2023/02/23 05:49:40;;;;;;;70.78;28.88;;;;;;;-143.48;100.00;118439.88;5078088;28;20016;-74
2023/02/23 05:52:06;;;;;;;66.88;29.23;;;;;;;-143.48;100.00;118439.88;5096429;28;20102;-74
2023/02/23 05:54:31;;;;;;;68.32;28.75;;;;;;;-143.48;100.00;118439.88;5095948;28;20032;-74
2023/02/23 05:56:56;;;;;;;71.50;30.50;;;;;;;-143.48;100.00;118439.88;5078501;28;20076;-74
2023/02/23 05:59:28;;;;;;;72.55;29.30;;;;;;;-143.48;100.00;118439.88;5081259;28;20067;-74
2023/02/23 06:01:53;;;;;;;68.45;29.05;;;;;;;-143.48;100.00;118439.88;5095750;28;20036;-73
2023/02/23 06:04:18;;;;;;;68.95;28.52;;;;;;;-143.48;100.00;118439.88;5096433;28;20024;-73
2023/02/23 06:06:44;;;;;;;66.80;27.10;;;;;;;-143.48;100.00;118439.88;5077382;28;20024;-73
2023/02/23 06:09:09;;;;;;;70.22;29.00;;;;;;;-143.48;100.00;118439.88;5095921;28;20035;-73
2023/02/23 06:11:35;;;;;;;65.72;28.73;;;;;;;-143.48;100.00;118439.88;5077896;28;20031;-72
2023/02/23 06:14:00;;;;;;;71.53;28.77;;;;;;;-143.48;100.00;118439.88;5095813;28;20737;-74
2023/02/23 06:16:26;;;;;;;66.82;28.35;;;;;;;-143.48;100.00;118439.88;5096105;28;20039;-73
2023/02/23 06:18:52;;;;;;;65.03;27.17;;;;;;;-143.48;100.00;118439.88;5095600;28;20501;-74
2023/02/23 06:21:17;;;;;;;65.15;28.60;;;;;;;-143.48;100.00;118439.88;5077115;28;20052;-73
2023/02/23 06:23:42;;;;;;;66.53;28.13;;;;;;;-143.48;100.00;118439.88;5096251;28;20028;-73
2023/02/23 06:26:08;;;;;;;64.45;27.80;;;;;;;-143.48;100.00;118439.88;5095905;28;20015;-74
2023/02/23 06:28:34;;;;;;;64.00;28.35;;;;;;;-143.48;100.00;118439.88;5095716;28;20081;-73
2023/02/23 06:30:59;;;;;;;69.18;28.95;;;;;;;-143.48;100.00;118439.88;5095618;28;20020;-74
2023/02/23 06:33:24;;;;;;;64.53;27.77;;;;;;;-143.48;100.00;118439.88;5077074;28;20020;-73
2023/02/23 06:35:51;;;;;;;72.82;29.02;;;;;;;-143.48;100.00;118439.88;5077041;28;20114;-73
2023/02/23 06:38:16;;;;;;;67.55;28.88;;;;;;;-143.48;100.00;118439.88;5095566;28;20027;-74
2023/02/23 06:40:42;;;;;;;67.63;27.45;;;;;;;-143.48;100.00;118439.88;5076900;28;20020;-74
2023/02/23 06:43:07;;;;;;;69.32;28.98;;;;;;;-143.48;100.00;118439.88;5095025;28;20031;-74
2023/02/23 06:45:33;;;;;;;68.88;28.58;;;;;;;-143.48;100.00;118439.88;5077573;28;20375;-74
2023/02/23 06:47:59;;;;;;;66.15;28.25;;;;;;;-143.48;100.00;118439.88;5076969;28;20549;-74
2023/02/23 06:50:25;;;;;;;70.28;28.55;;;;;;;-143.48;100.00;118439.88;5094865;28;20028;-74
2023/02/23 06:52:51;;;;;;;67.57;28.55;;;;;;;-143.48;100.00;118439.88;5094663;28;20028;-74
2023/02/23 06:55:16;;;;;;;69.68;29.27;;;;;;;-143.48;100.00;118439.88;5094608;28;20493;-74
2023/02/23 06:57:42;;;;;;;68.80;29.13;;;;;;;-143.48;100.00;118439.88;5076675;28;20555;-74
2023/02/23 07:00:09;;;;;;;70.55;30.02;;;;;;;-143.48;100.00;118439.88;5094816;28;20103;-74
2023/02/23 07:02:36;;;;;;;62.53;27.98;;;;;;;-143.48;100.00;118439.88;5094674;28;20043;-74
2023/02/23 07:05:02;;;;;;;71.57;28.75;;;;;;;-143.48;100.00;118439.88;5077081;28;20375;-73
2023/02/23 07:07:28;;;;;;;66.68;28.35;;;;;;;-143.48;100.00;118439.88;5095617;28;20024;-74
2023/02/23 07:09:53;;;;;;;67.72;27.55;;;;;;;-143.48;100.00;118439.88;5076919;28;20085;-74
2023/02/23 07:12:18;;;;;;;66.32;27.92;;;;;;;-143.48;100.00;118439.88;5094969;28;20058;-73
2023/02/23 07:14:43;;;;;;;64.53;27.80;;;;;;;-143.48;100.00;118439.88;5076222;28;20055;-74
2023/02/23 07:17:09;;;;;;;65.88;28.25;;;;;;;-143.48;100.00;118439.88;5076432;28;20028;-74
2023/02/23 07:19:34;;;;;;;75.72;29.38;;;;;;;-143.48;100.00;118439.88;5076448;28;20370;-73
2023/02/23 07:22:00;;;;;;;74.85;28.77;;;;;;;-143.48;100.00;118439.88;5076084;28;20053;-73
2023/02/23 07:24:27;;;;;;;66.07;29.20;;;;;;;-143.48;100.00;118439.88;5094413;28;20031;-73
2023/02/23 07:26:52;;;;;;;68.78;27.90;;;;;;;-143.48;100.00;118439.88;5076240;28;20444;-74
2023/02/23 07:29:18;;;;;;;74.57;27.67;;;;;;;-143.48;100.00;118439.88;5094224;28;20089;-74
2023/02/23 07:31:43;;;;;;;64.00;27.90;;;;;;;-143.48;100.00;118439.88;5096435;28;20024;-73
2023/02/23 07:34:09;;;;;;;65.40;27.67;;;;;;;-143.48;100.00;118439.88;5081566;28;20463;-73
2023/02/23 07:36:34;;;;;;;71.13;27.98;;;;;;;-143.48;100.00;118439.88;5076871;28;20107;-73
2023/02/23 07:39:00;;;;;;;64.97;27.38;;;;;;;-143.48;100.00;118439.88;5094395;28;20459;-74
2023/02/23 07:41:26;;;;;;;59.22;25.50;;;;;;;-143.48;100.00;118439.88;5075982;28;20407;-74
2023/02/23 07:43:51;;;;;;;63.17;26.45;;;;;;;-143.48;100.00;118439.88;5075576;28;20490;-74
2023/02/23 07:46:16;;;;;;;66.10;26.95;;;;;;;-143.48;100.00;118439.88;5075781;28;20027;-74
2023/02/23 07:48:46;;;;;;;68.68;27.92;;;;;;;-143.48;100.00;118439.88;5077026;28;20378;-74
2023/02/23 07:51:14;;;;;;;66.38;27.05;;;;;;;-143.48;100.00;118439.88;5079083;28;20054;-74
2023/02/23 07:53:40;;;;;;;62.63;25.90;;;;;;;-143.48;100.00;118439.88;5059751;28;20024;-74
2023/02/23 07:56:10;;;;;;;65.32;26.00;;;;;;;-143.48;100.00;118439.88;5097068;28;20013;-75
2023/02/23 07:58:38;;;;;;;64.78;25.65;;;;;;;-143.48;100.00;118439.88;5072131;28;20032;-73
2023/02/23 08:01:05;;;;;;;68.30;26.90;;;;;;;-143.48;100.00;118439.88;5077496;28;20059;-73
2023/02/23 08:03:30;;;;;;;62.70;26.15;;;;;;;-143.48;100.00;118439.88;5088556;28;20028;-73
2023/02/23 08:05:56;;;;;;;59.67;24.40;;;;;;;-143.48;100.00;118439.88;5106668;22;20495;-69
2023/02/23 08:08:22;;;;;;;65.07;26.00;;;;;;;-143.48;100.00;118439.88;5095251;28;20016;-69
2023/02/23 08:10:47;;;;;;;64.35;25.55;;;;;;;-143.48;100.00;118439.88;5113532;28;20032;-69
2023/02/23 08:13:14;;;;;;;59.33;24.17;;;;;;;-143.48;100.00;118439.88;5113483;28;20027;-69
2023/02/23 08:15:40;;;;;;;61.35;24.55;;;;;;;-143.48;100.00;118439.88;5113503;28;20474;-69
2023/02/23 08:18:05;;;;;;;59.47;24.55;;;;;;;-143.48;100.00;118439.88;5095107;28;20046;-69
2023/02/23 08:20:31;;;;;;;56.20;22.50;;;;;;;-143.48;100.00;118439.88;5113512;28;20024;-70
2023/02/23 08:22:57;;;;;;;59.47;24.38;;;;;;;-143.48;100.00;118439.88;5113388;28;20080;-69
2023/02/23 08:25:23;;;;;;;55.42;22.00;;;;;;;-143.48;100.00;118439.88;5113485;28;20020;-67
2023/02/23 08:27:50;;;;;;;54.70;22.17;;;;;;;-143.48;100.00;118439.88;5095107;28;20034;-68
2023/02/23 08:30:18;;;;;;;53.67;22.05;;;;;;;-143.48;100.00;118439.88;5113225;28;20092;-68
2023/02/23 08:32:43;;;;;;;55.25;21.88;;;;;;;-143.48;100.00;118439.88;5113335;28;20032;-69
2023/02/23 08:35:09;;;;;;;51.28;20.67;;;;;;;-143.48;100.00;118439.88;5095450;28;20015;-69
2023/02/23 08:37:34;;;;;;;50.28;19.30;;;;;;;-143.48;100.00;118439.88;5113575;28;20238;-69
2023/02/23 08:39:59;;;;;;;47.75;18.77;;;;;;;-143.48;100.00;118439.88;5113205;28;20027;-69
2023/02/23 08:42:26;;;;;;;43.53;17.63;;;;;;;-143.48;100.00;118439.88;5094846;28;20034;-68
2023/02/23 08:44:51;;;;;;;50.63;18.67;;;;;;;-143.48;100.00;118439.88;5094911;28;20019;-68
2023/02/23 08:47:20;;;;;;;45.78;18.15;;;;;;;-143.48;100.00;118439.88;5095459;28;20073;-69
2023/02/23 08:49:46;;;;;;;46.65;18.33;;;;;;;-143.48;100.00;118439.88;5093226;28;20053;-69
2023/02/23 08:52:11;;;;;;;44.22;17.05;;;;;;;-143.48;100.00;118439.88;5111656;28;20107;-69
2023/02/23 08:54:36;;;;;;;39.88;16.63;;;;;;;-143.48;100.00;118439.88;5094443;28;20024;-69
2023/02/23 08:57:02;;;;;;;41.25;17.23;;;;;;;-143.48;100.00;118439.88;5111859;28;20076;-69
2023/02/23 08:59:27;;;;;;;40.33;16.23;;;;;;;-143.48;100.00;118439.88;5112247;28;20028;-69
2023/02/23 09:01:52;;;;;;;40.58;16.25;;;;;;;-143.48;100.00;118439.88;5111971;28;20469;-69
2023/02/23 09:04:18;;;;;;;41.20;15.80;;;;;;;-143.48;100.00;118439.88;5091056;28;20502;-69
2023/02/23 09:06:46;;;;;;;39.13;15.73;;;;;;;-143.48;100.00;118439.88;5092323;28;20024;-68
2023/02/23 09:09:15;;;;;;;37.95;15.40;;;;;;;-143.48;100.00;118439.88;5092611;28;20093;-68
2023/02/23 09:11:40;;;;;;;39.00;15.77;;;;;;;-143.48;100.00;118439.88;5108214;28;20421;-70
2023/02/23 09:14:07;;;;;;;39.65;14.73;;;;;;;-143.48;100.00;118439.88;5092561;28;20028;-70
2023/02/23 09:16:34;;;;;;;36.28;15.13;;;;;;;-143.48;100.00;118439.88;5093626;28;20020;-68
2023/02/23 09:19:00;;;;;;;35.40;15.30;;;;;;;-143.48;100.00;118439.88;5096252;28;20137;-68
2023/02/23 09:21:28;;;;;;;36.45;14.93;;;;;;;-143.48;100.00;118439.88;5111877;28;20039;-69
2023/02/23 09:23:54;;;;;;;36.40;14.52;;;;;;;-143.48;100.00;118439.88;5095927;28;20020;-69
2023/02/23 09:26:21;;;;;;;47.55;16.60;;;;;;;-143.48;100.00;118439.88;5095898;28;20063;-69
2023/02/23 09:28:47;;;;;;;35.30;15.38;;;;;;;-143.48;99.96;118439.88;5094432;28;20034;-69
2023/02/23 09:31:15;;;;;;;37.22;15.52;;;;;;;-143.48;99.47;118439.88;5095942;28;20028;-68
2023/02/23 09:33:41;;;;;;;37.90;15.52;;;;;;;-143.48;99.81;118439.88;5095886;28;20420;-69
2023/02/23 09:36:11;;;;;;;37.92;14.60;;;;;;;-143.48;99.09;118439.88;5096641;28;20514;-69
2023/02/23 09:38:37;;;;;;;40.00;15.90;;;;;;;-143.48;98.92;118439.88;5096581;28;20073;-69
2023/02/23 09:41:15;;;;;;;43.30;15.73;;;;;;;-143.48;99.73;118439.88;5111730;28;20031;-69
2023/02/23 09:43:49;;;;;;;41.05;15.50;;;;;;;-143.48;99.66;118439.88;5096144;28;20515;-69
2023/02/23 09:46:37;;;;;;;37.83;15.43;;;;;;;-143.48;99.32;118439.88;5111718;28;20047;-69
2023/02/23 09:49:10;;;;;;;41.17;15.68;;;;;;;-143.48;99.39;118439.88;5112158;28;20023;-69
2023/02/23 09:51:39;;;;;;;39.67;15.50;;;;;;;-143.48;99.09;118439.88;5096017;28;20455;-69
2023/02/23 09:54:10;;;;;;;35.83;15.43;;;;;;;-143.48;98.86;118439.88;5095852;28;20363;-68
2023/02/23 09:56:38;;;;;;;38.92;15.77;;;;;;;-143.48;98.70;118439.88;5111446;28;20363;-69
2023/02/23 09:59:05;;;;;;;39.58;16.55;;;;;;;-143.48;98.76;118439.88;5095994;28;20459;-69
2023/02/23 10:01:40;;;;;;;39.97;15.50;;;;;;;-143.48;98.55;118439.88;5096003;28;20024;-69
2023/02/23 10:04:20;;;;;;;37.63;15.45;;;;;;;-143.48;98.48;118439.88;5098396;28;20111;-69
2023/02/23 10:07:03;;;;;;;36.22;14.52;;;;;;;-143.48;98.01;118439.88;5116575;28;20034;-69
2023/02/23 10:09:47;;;;;;;;;;;;;;;-143.48;97.61;118439.88;5116840;28;20020;-69
2023/02/23 10:12:30;;;;;;;37.67;15.85;;;;;;;-143.48;97.73;118439.88;5116051;28;20358;-69
2023/02/23 10:15:17;;;;;;;37.78;15.25;;;;;;;-143.48;98.16;118439.88;5116182;28;20019;-69
2023/02/23 10:18:02;;;;;;;37.67;15.55;;;;;;;-143.48;97.52;118439.88;5116009;28;20020;-70
2023/02/23 10:20:36;;;;;;;36.72;15.32;;;;;;;-143.48;96.70;118439.88;5097593;28;20027;-69
2023/02/23 10:23:10;;;;;;;32.03;14.68;;;;;;;-143.48;97.13;118439.88;5115840;28;20039;-69
2023/02/23 10:25:42;;;;;;;33.53;15.13;;;;;;;-143.48;96.70;118439.88;5097149;28;20023;-70
2023/02/23 10:28:14;;;;;;;36.80;14.45;;;;;;;-143.48;96.71;118439.88;5114804;28;20027;-69
2023/02/23 10:30:39;;;;;;;35.53;15.47;;;;;;;-143.48;95.69;118439.88;5115603;28;20030;-70
2023/02/23 10:33:27;;;;;;;36.33;15.23;;;;;;;-143.48;96.08;118439.88;5098116;28;20046;-66
2023/02/23 10:36:04;;;;;;;36.10;14.93;;;;;;;-143.48;96.52;118439.88;5097200;28;20055;-67
2023/02/23 10:38:30;;;;;;;36.17;15.10;;;;;;;-143.48;97.47;118439.88;5115520;28;20065;-68
2023/02/23 10:40:56;;;;;;;34.88;13.80;;;;;;;-143.48;96.52;118439.88;5115399;28;20028;-68
2023/02/23 10:43:21;;;;;;;41.30;15.35;;;;;;;-143.48;97.61;118439.88;5115619;28;20035;-68
2023/02/23 10:45:49;;;;;;;36.05;14.63;;;;;;;-143.48;97.90;118439.88;5097176;28;20393;-68
2023/02/23 10:48:22;;;;;;;36.00;14.85;;;;;;;-143.48;98.73;118439.88;5115561;28;20038;-68
2023/02/23 10:50:49;;;;;;;29.45;13.32;;;;;;;-143.48;99.14;118439.88;5097150;28;20492;-68
2023/02/23 10:53:21;;;;;;;34.22;13.45;;;;;;;-143.48;99.47;118439.88;5115496;28;20019;-68
2023/02/23 10:56:00;;;;;;;31.27;12.38;;;;;;;-143.48;99.09;118439.88;5115444;28;20020;-68
2023/02/23 10:58:27;;;;;;;30.20;12.25;;;;;;;-143.48;98.89;118439.88;5115536;28;20026;-68
2023/02/23 11:00:58;;;;;;;27.45;11.23;;;;;;;-143.48;99.10;118439.88;5115035;28;20051;-68
2023/02/23 11:03:34;;;;;;;30.27;12.13;;;;;;;-143.48;99.76;118439.88;5115718;28;20030;-68
2023/02/23 11:06:01;;;;;;;32.10;12.38;;;;;;;-143.48;99.91;118439.88;5096713;28;20062;-68
2023/02/23 11:08:35;;;;;;;28.15;12.10;;;;;;;-143.48;99.81;118439.88;5115516;28;20012;-68
2023/02/23 11:11:05;;;;;;;34.90;13.55;;;;;;;-143.48;100.00;118439.88;5114956;28;20046;-68
2023/02/23 11:13:36;;;;;;;30.67;13.07;;;;;;;-143.48;99.75;118439.88;5115166;28;20015;-68
2023/02/23 11:16:23;;;;;;;31.60;13.55;;;;;;;-143.48;99.96;118439.88;5114837;28;20066;-68
2023/02/23 11:19:02;;;;;;;31.55;13.00;;;;;;;-143.48;99.61;118439.88;5096225;28;20027;-68
2023/02/23 11:21:37;;;;;;;38.03;14.10;;;;;;;-143.48;99.67;118439.88;5115061;28;20023;-68
2023/02/23 11:24:23;;;;;;;31.30;13.18;;;;;;;-143.48;99.58;118439.88;5114862;28;20024;-68
2023/02/23 11:26:51;;;;;;;27.35;12.30;;;;;;;-143.48;99.17;118439.88;5114617;28;20023;-67
2023/02/23 11:29:43;;;;;;;32.65;14.18;;;;;;;-143.48;99.32;118439.88;5114880;28;20023;-68
2023/02/23 11:32:14;;;;;;;34.88;13.27;;;;;;;-143.48;98.27;118439.88;5114849;28;20459;-67
2023/02/23 11:34:39;;;;;;;35.10;13.85;;;;;;;-143.48;97.20;118439.88;5096525;28;20016;-67
2023/02/23 11:37:19;;;;;;;33.22;14.18;;;;;;;-143.48;97.09;118439.88;5114792;28;20421;-66
2023/02/23 11:40:00;;;;;;;29.65;13.63;;;;;;;-143.48;96.75;118439.88;5113945;28;20068;-67
2023/02/23 11:42:31;;;;;;;35.78;14.60;;;;;;;-143.48;97.31;118439.88;5114609;28;20028;-67
2023/02/23 11:45:14;;;;;;;32.92;14.02;;;;;;;-143.48;96.75;118439.88;5114442;28;20024;-67
2023/02/23 11:47:45;;;;;;;37.38;13.80;;;;;;;-143.48;96.75;118439.88;5114309;28;20028;-67
2023/02/23 11:50:29;;;;;;;35.22;13.80;;;;;;;-143.48;95.49;118439.88;5114360;28;20020;-67
2023/02/23 11:53:00;;;;;;;27.48;12.88;;;;;;;-143.48;94.45;118439.88;5096200;28;20084;-67
2023/02/23 11:55:28;;;;;;;27.55;12.18;;;;;;;-143.48;93.90;118439.88;5114361;28;20027;-67
2023/02/23 11:58:18;;;;;;;26.42;11.68;;;;;;;-143.48;93.85;118439.88;5095826;28;20134;-67
2023/02/23 12:01:00;;;;;;;27.73;11.40;;;;;;;-143.48;93.79;118439.88;5114229;28;20478;-67
2023/02/23 12:03:28;;;;;;;23.10;11.15;;;;;;;-143.48;91.72;118439.88;5114087;28;20034;-67
2023/02/23 12:05:58;;;;;;;28.52;12.52;;;;;;;-143.48;92.34;118439.88;5113781;28;20052;-67
2023/02/23 12:08:55;;;;;;;28.25;12.73;;;;;;;-143.48;91.25;118439.88;5114074;28;20028;-67
2023/02/23 12:11:25;;;;;;;29.30;13.02;;;;;;;-143.48;92.40;118439.88;5114082;28;20351;-67
2023/02/23 12:14:01;;;;;;;31.92;13.63;;;;;;;-143.48;92.47;118439.88;5095933;28;20379;-67
2023/02/23 12:16:52;;;;;;;37.95;13.88;;;;;;;-143.48;94.14;118439.88;5114046;28;20050;-67
2023/02/23 12:19:36;;;;;;;32.20;14.27;;;;;;;-143.48;93.50;118439.88;5113992;28;20023;-67